sensor_id;sensor_type;location;lat;lon;timestamp;P1;durP1;ratioP1;P2;durP2;ratioP2
21168;SDS011;10742;51.816;8.662;2022-08-19T00:01:02;1999.90;;;619.80;;
21168;SDS011;10742;51.816;8.662;2022-08-19T00:04:25;1999.90;;;671.80;;
21168;SDS011;10742;51.816;8.662;2022-08-19T00:07:49;1999.90;;;697.83;;
21168;SDS011;10742;51.816;8.662;2022-08-19T00:11:13;1999.90;;;716.05;;
21168;SDS011;10742;51.816;8.662;2022-08-19T00:14:34;1999.90;;;727.30;;
21168;SDS011;10742;51.816;8.662;2022-08-19T00:17:55;1999.90;;;728.78;;
21168;SDS011;10742;51.816;8.662;2022-08-19T00:21:16;1999.90;;;756.42;;
21168;SDS011;10742;51.816;8.662;2022-08-19T00:24:38;1999.90;;;735.75;;
21168;SDS011;10742;51.816;8.662;2022-08-19T00:28:01;1999.90;;;778.90;;
21168;SDS011;10742;51.816;8.662;2022-08-19T00:31:23;1999.90;;;782.65;;
21168;SDS011;10742;51.816;8.662;2022-08-19T00:34:45;1999.90;;;818.03;;
21168;SDS011;10742;51.816;8.662;2022-08-19T00:38:06;1999.90;;;773.78;;
21168;SDS011;10742;51.816;8.662;2022-08-19T00:41:28;1999.90;;;838.00;;
21168;SDS011;10742;51.816;8.662;2022-08-19T00:44:49;1999.90;;;862.78;;
21168;SDS011;10742;51.816;8.662;2022-08-19T00:48:11;1999.90;;;878.95;;
21168;SDS011;10742;51.816;8.662;2022-08-19T00:51:32;1999.90;;;884.33;;
21168;SDS011;10742;51.816;8.662;2022-08-19T00:54:53;1999.90;;;870.45;;
21168;SDS011;10742;51.816;8.662;2022-08-19T00:58:16;1999.90;;;823.45;;
21168;SDS011;10742;51.816;8.662;2022-08-19T01:01:39;1999.90;;;827.67;;
21168;SDS011;10742;51.816;8.662;2022-08-19T01:05:05;1999.90;;;886.80;;
21168;SDS011;10742;51.816;8.662;2022-08-19T01:08:30;1999.90;;;941.05;;
21168;SDS011;10742;51.816;8.662;2022-08-19T01:11:51;1999.90;;;993.50;;
21168;SDS011;10742;51.816;8.662;2022-08-19T01:15:14;1999.90;;;927.83;;
21168;SDS011;10742;51.816;8.662;2022-08-19T01:18:40;1999.90;;;994.58;;
21168;SDS011;10742;51.816;8.662;2022-08-19T01:22:12;1999.90;;;960.22;;
21168;SDS011;10742;51.816;8.662;2022-08-19T01:25:49;1999.90;;;926.80;;
21168;SDS011;10742;51.816;8.662;2022-08-19T01:29:11;1999.90;;;902.70;;
21168;SDS011;10742;51.816;8.662;2022-08-19T01:32:34;1999.90;;;892.72;;
21168;SDS011;10742;51.816;8.662;2022-08-19T01:36:03;1999.90;;;922.45;;
21168;SDS011;10742;51.816;8.662;2022-08-19T01:39:29;1999.90;;;870.53;;
21168;SDS011;10742;51.816;8.662;2022-08-19T01:42:51;1999.90;;;880.30;;
21168;SDS011;10742;51.816;8.662;2022-08-19T01:46:13;1999.90;;;894.63;;
21168;SDS011;10742;51.816;8.662;2022-08-19T01:49:35;1999.90;;;900.33;;
21168;SDS011;10742;51.816;8.662;2022-08-19T01:52:56;1999.90;;;936.70;;
21168;SDS011;10742;51.816;8.662;2022-08-19T01:56:18;1999.90;;;971.63;;
21168;SDS011;10742;51.816;8.662;2022-08-19T01:59:40;1999.90;;;974.50;;
21168;SDS011;10742;51.816;8.662;2022-08-19T02:03:03;1999.90;;;997.65;;
21168;SDS011;10742;51.816;8.662;2022-08-19T02:06:24;1999.90;;;999.90;;
21168;SDS011;10742;51.816;8.662;2022-08-19T02:09:45;1999.90;;;999.90;;
21168;SDS011;10742;51.816;8.662;2022-08-19T02:13:07;1999.90;;;999.90;;
21168;SDS011;10742;51.816;8.662;2022-08-19T02:16:29;1999.90;;;999.90;;
21168;SDS011;10742;51.816;8.662;2022-08-19T02:19:51;1999.90;;;999.90;;
21168;SDS011;10742;51.816;8.662;2022-08-19T02:23:12;1999.90;;;999.90;;
21168;SDS011;10742;51.816;8.662;2022-08-19T02:26:35;1999.90;;;999.90;;
21168;SDS011;10742;51.816;8.662;2022-08-19T02:29:57;1999.90;;;999.90;;
21168;SDS011;10742;51.816;8.662;2022-08-19T02:33:18;1999.90;;;999.90;;
21168;SDS011;10742;51.816;8.662;2022-08-19T02:36:39;1999.90;;;999.90;;
21168;SDS011;10742;51.816;8.662;2022-08-19T02:40:01;1999.90;;;999.90;;
21168;SDS011;10742;51.816;8.662;2022-08-19T02:43:22;1999.90;;;999.90;;
21168;SDS011;10742;51.816;8.662;2022-08-19T02:46:45;1999.90;;;999.90;;
21168;SDS011;10742;51.816;8.662;2022-08-19T02:50:07;1999.90;;;999.90;;
21168;SDS011;10742;51.816;8.662;2022-08-19T02:53:28;1999.90;;;999.90;;
21168;SDS011;10742;51.816;8.662;2022-08-19T02:56:50;1999.90;;;999.90;;
21168;SDS011;10742;51.816;8.662;2022-08-19T03:00:12;1999.90;;;999.90;;
21168;SDS011;10742;51.816;8.662;2022-08-19T03:03:34;1999.90;;;999.90;;
21168;SDS011;10742;51.816;8.662;2022-08-19T03:06:55;1999.90;;;999.90;;
21168;SDS011;10742;51.816;8.662;2022-08-19T03:10:19;1999.90;;;999.90;;
21168;SDS011;10742;51.816;8.662;2022-08-19T03:13:41;1999.90;;;999.90;;
21168;SDS011;10742;51.816;8.662;2022-08-19T03:17:04;1999.90;;;999.90;;
21168;SDS011;10742;51.816;8.662;2022-08-19T03:20:25;1999.90;;;999.90;;
21168;SDS011;10742;51.816;8.662;2022-08-19T03:23:47;1999.90;;;999.90;;
21168;SDS011;10742;51.816;8.662;2022-08-19T03:27:08;1999.90;;;999.90;;
21168;SDS011;10742;51.816;8.662;2022-08-19T03:30:29;1999.90;;;999.90;;
21168;SDS011;10742;51.816;8.662;2022-08-19T03:33:51;1999.90;;;999.90;;
21168;SDS011;10742;51.816;8.662;2022-08-19T03:37:12;1999.90;;;999.90;;
21168;SDS011;10742;51.816;8.662;2022-08-19T03:40:36;1999.90;;;999.90;;
21168;SDS011;10742;51.816;8.662;2022-08-19T03:43:58;1999.90;;;999.90;;
21168;SDS011;10742;51.816;8.662;2022-08-19T03:47:19;1999.90;;;999.90;;
21168;SDS011;10742;51.816;8.662;2022-08-19T03:50:40;1999.90;;;999.90;;
21168;SDS011;10742;51.816;8.662;2022-08-19T03:54:02;1999.90;;;999.90;;
21168;SDS011;10742;51.816;8.662;2022-08-19T03:57:27;1999.90;;;999.90;;
21168;SDS011;10742;51.816;8.662;2022-08-19T04:00:49;1999.90;;;999.90;;
21168;SDS011;10742;51.816;8.662;2022-08-19T04:04:10;1999.90;;;999.90;;
21168;SDS011;10742;51.816;8.662;2022-08-19T04:07:31;1999.90;;;999.90;;
21168;SDS011;10742;51.816;8.662;2022-08-19T04:10:52;1999.90;;;999.90;;
21168;SDS011;10742;51.816;8.662;2022-08-19T04:14:18;1999.90;;;999.90;;
21168;SDS011;10742;51.816;8.662;2022-08-19T04:17:40;1999.90;;;999.90;;
21168;SDS011;10742;51.816;8.662;2022-08-19T04:21:01;1999.90;;;999.90;;
21168;SDS011;10742;51.816;8.662;2022-08-19T04:24:23;1999.90;;;999.90;;
21168;SDS011;10742;51.816;8.662;2022-08-19T04:27:45;1999.90;;;999.90;;
21168;SDS011;10742;51.816;8.662;2022-08-19T04:31:11;1999.90;;;999.90;;
21168;SDS011;10742;51.816;8.662;2022-08-19T04:34:37;1999.90;;;999.90;;
21168;SDS011;10742;51.816;8.662;2022-08-19T04:37:58;1999.90;;;999.90;;
21168;SDS011;10742;51.816;8.662;2022-08-19T04:41:19;1999.90;;;999.90;;
21168;SDS011;10742;51.816;8.662;2022-08-19T04:44:59;1999.90;;;999.90;;
21168;SDS011;10742;51.816;8.662;2022-08-19T04:48:21;1999.90;;;999.90;;
21168;SDS011;10742;51.816;8.662;2022-08-19T04:51:47;1999.90;;;999.90;;
21168;SDS011;10742;51.816;8.662;2022-08-19T04:55:10;1999.90;;;999.90;;
21168;SDS011;10742;51.816;8.662;2022-08-19T04:58:32;1999.90;;;999.90;;
21168;SDS011;10742;51.816;8.662;2022-08-19T05:01:53;1999.90;;;999.90;;
21168;SDS011;10742;51.816;8.662;2022-08-19T05:05:15;1999.90;;;999.90;;
21168;SDS011;10742;51.816;8.662;2022-08-19T05:08:37;1999.90;;;999.90;;
21168;SDS011;10742;51.816;8.662;2022-08-19T05:12:04;1999.90;;;999.90;;
21168;SDS011;10742;51.816;8.662;2022-08-19T05:15:26;1999.90;;;999.90;;
21168;SDS011;10742;51.816;8.662;2022-08-19T05:18:48;1999.90;;;999.90;;
21168;SDS011;10742;51.816;8.662;2022-08-19T05:22:28;1999.90;;;999.90;;
21168;SDS011;10742;51.816;8.662;2022-08-19T05:25:53;1999.90;;;999.90;;
21168;SDS011;10742;51.816;8.662;2022-08-19T05:29:16;1999.90;;;999.90;;
21168;SDS011;10742;51.816;8.662;2022-08-19T05:32:41;1999.90;;;999.90;;
21168;SDS011;10742;51.816;8.662;2022-08-19T05:36:02;1999.90;;;999.90;;
21168;SDS011;10742;51.816;8.662;2022-08-19T05:39:25;1999.90;;;999.90;;
21168;SDS011;10742;51.816;8.662;2022-08-19T05:42:47;1999.90;;;999.90;;
21168;SDS011;10742;51.816;8.662;2022-08-19T05:46:15;1999.90;;;999.90;;
21168;SDS011;10742;51.816;8.662;2022-08-19T05:49:38;1999.90;;;999.90;;
21168;SDS011;10742;51.816;8.662;2022-08-19T05:52:59;1999.90;;;999.90;;
21168;SDS011;10742;51.816;8.662;2022-08-19T05:56:21;1999.90;;;999.90;;
21168;SDS011;10742;51.816;8.662;2022-08-19T05:59:42;1999.90;;;999.90;;
21168;SDS011;10742;51.816;8.662;2022-08-19T06:03:06;1999.90;;;999.90;;
21168;SDS011;10742;51.816;8.662;2022-08-19T06:06:27;1999.90;;;999.90;;
21168;SDS011;10742;51.816;8.662;2022-08-19T06:09:49;1999.90;;;999.90;;
21168;SDS011;10742;51.816;8.662;2022-08-19T06:13:10;1999.90;;;999.90;;
21168;SDS011;10742;51.816;8.662;2022-08-19T06:16:31;1999.90;;;999.90;;
21168;SDS011;10742;51.816;8.662;2022-08-19T06:19:55;1999.90;;;999.90;;
21168;SDS011;10742;51.816;8.662;2022-08-19T06:23:17;1999.90;;;999.90;;
21168;SDS011;10742;51.816;8.662;2022-08-19T06:26:40;1999.90;;;999.90;;
21168;SDS011;10742;51.816;8.662;2022-08-19T06:30:11;1999.90;;;999.90;;
21168;SDS011;10742;51.816;8.662;2022-08-19T06:33:33;1999.90;;;999.90;;
21168;SDS011;10742;51.816;8.662;2022-08-19T06:36:54;1999.90;;;999.90;;
21168;SDS011;10742;51.816;8.662;2022-08-19T06:40:17;1999.90;;;999.90;;
21168;SDS011;10742;51.816;8.662;2022-08-19T06:43:38;1999.90;;;999.90;;
21168;SDS011;10742;51.816;8.662;2022-08-19T06:47:03;1999.90;;;999.90;;
21168;SDS011;10742;51.816;8.662;2022-08-19T06:50:26;1999.90;;;999.90;;
21168;SDS011;10742;51.816;8.662;2022-08-19T06:53:47;1999.90;;;988.55;;
21168;SDS011;10742;51.816;8.662;2022-08-19T06:57:11;1999.90;;;864.33;;
21168;SDS011;10742;51.816;8.662;2022-08-19T07:00:35;1999.90;;;796.58;;
21168;SDS011;10742;51.816;8.662;2022-08-19T07:03:57;1999.90;;;643.08;;
21168;SDS011;10742;51.816;8.662;2022-08-19T07:07:19;1999.90;;;718.25;;
21168;SDS011;10742;51.816;8.662;2022-08-19T07:10:45;1960.10;;;554.95;;
21168;SDS011;10742;51.816;8.662;2022-08-19T07:14:06;1847.60;;;503.83;;
21168;SDS011;10742;51.816;8.662;2022-08-19T07:17:28;1401.78;;;423.08;;
21168;SDS011;10742;51.816;8.662;2022-08-19T07:20:49;1063.95;;;339.95;;
21168;SDS011;10742;51.816;8.662;2022-08-19T07:24:10;788.58;;;250.93;;
21168;SDS011;10742;51.816;8.662;2022-08-19T07:27:32;430.17;;;157.25;;
21168;SDS011;10742;51.816;8.662;2022-08-19T07:30:54;389.90;;;140.32;;
21168;SDS011;10742;51.816;8.662;2022-08-19T07:34:15;332.55;;;119.82;;
21168;SDS011;10742;51.816;8.662;2022-08-19T07:37:37;277.50;;;106.90;;
21168;SDS011;10742;51.816;8.662;2022-08-19T07:41:00;284.90;;;103.85;;
21168;SDS011;10742;51.816;8.662;2022-08-19T07:44:21;125.72;;;63.70;;
21168;SDS011;10742;51.816;8.662;2022-08-19T07:47:43;57.00;;;34.80;;
21168;SDS011;10742;51.816;8.662;2022-08-19T07:51:05;47.33;;;28.75;;
21168;SDS011;10742;51.816;8.662;2022-08-19T08:14:50;20.85;;;18.25;;
21168;SDS011;10742;51.816;8.662;2022-08-19T08:18:13;19.83;;;14.82;;
21168;SDS011;10742;51.816;8.662;2022-08-19T08:21:35;18.10;;;14.45;;
21168;SDS011;10742;51.816;8.662;2022-08-19T08:24:57;21.80;;;15.02;;
21168;SDS011;10742;51.816;8.662;2022-08-19T08:28:25;17.70;;;14.50;;
21168;SDS011;10742;51.816;8.662;2022-08-19T08:31:47;17.63;;;14.20;;
21168;SDS011;10742;51.816;8.662;2022-08-19T08:35:10;15.73;;;11.75;;
21168;SDS011;10742;51.816;8.662;2022-08-19T08:38:34;15.55;;;9.35;;
21168;SDS011;10742;51.816;8.662;2022-08-19T08:42:16;11.55;;;7.90;;
21168;SDS011;10742;51.816;8.662;2022-08-19T08:45:47;11.15;;;7.82;;
21168;SDS011;10742;51.816;8.662;2022-08-19T08:49:24;10.75;;;6.63;;
21168;SDS011;10742;51.816;8.662;2022-08-19T08:52:48;10.60;;;6.18;;
21168;SDS011;10742;51.816;8.662;2022-08-19T08:56:12;9.68;;;5.90;;
21168;SDS011;10742;51.816;8.662;2022-08-19T08:59:34;11.20;;;6.22;;
21168;SDS011;10742;51.816;8.662;2022-08-19T09:03:00;8.30;;;5.30;;
21168;SDS011;10742;51.816;8.662;2022-08-19T09:06:32;8.15;;;5.80;;
21168;SDS011;10742;51.816;8.662;2022-08-19T09:10:21;7.75;;;5.00;;
21168;SDS011;10742;51.816;8.662;2022-08-19T09:18:08;7.88;;;5.20;;
21168;SDS011;10742;51.816;8.662;2022-08-19T09:21:30;11.68;;;5.13;;
21168;SDS011;10742;51.816;8.662;2022-08-19T09:24:51;7.82;;;5.22;;
21168;SDS011;10742;51.816;8.662;2022-08-19T09:28:13;7.30;;;4.15;;
21168;SDS011;10742;51.816;8.662;2022-08-19T09:31:34;6.18;;;4.18;;
21168;SDS011;10742;51.816;8.662;2022-08-19T09:34:56;6.68;;;4.38;;
21168;SDS011;10742;51.816;8.662;2022-08-19T09:38:18;9.10;;;4.53;;
21168;SDS011;10742;51.816;8.662;2022-08-19T09:41:39;7.57;;;4.50;;
21168;SDS011;10742;51.816;8.662;2022-08-19T09:45:01;7.90;;;4.07;;
21168;SDS011;10742;51.816;8.662;2022-08-19T09:48:23;7.80;;;3.72;;
21168;SDS011;10742;51.816;8.662;2022-08-19T09:51:45;6.60;;;3.55;;
21168;SDS011;10742;51.816;8.662;2022-08-19T09:55:11;6.28;;;3.92;;
21168;SDS011;10742;51.816;8.662;2022-08-19T09:58:33;9.27;;;3.78;;
21168;SDS011;10742;51.816;8.662;2022-08-19T10:01:56;7.93;;;3.75;;
21168;SDS011;10742;51.816;8.662;2022-08-19T10:05:17;6.25;;;3.63;;
21168;SDS011;10742;51.816;8.662;2022-08-19T10:08:57;8.10;;;3.50;;
21168;SDS011;10742;51.816;8.662;2022-08-19T10:12:19;10.45;;;3.70;;
21168;SDS011;10742;51.816;8.662;2022-08-19T10:15:40;7.30;;;4.00;;
21168;SDS011;10742;51.816;8.662;2022-08-19T10:19:02;7.03;;;3.72;;
21168;SDS011;10742;51.816;8.662;2022-08-19T10:22:23;7.75;;;4.03;;
21168;SDS011;10742;51.816;8.662;2022-08-19T10:25:44;5.95;;;3.30;;
21168;SDS011;10742;51.816;8.662;2022-08-19T10:29:05;6.05;;;3.47;;
21168;SDS011;10742;51.816;8.662;2022-08-19T10:32:26;4.10;;;3.10;;
21168;SDS011;10742;51.816;8.662;2022-08-19T10:35:57;5.30;;;3.30;;
21168;SDS011;10742;51.816;8.662;2022-08-19T10:39:20;6.43;;;3.50;;
21168;SDS011;10742;51.816;8.662;2022-08-19T10:42:41;6.55;;;3.35;;
21168;SDS011;10742;51.816;8.662;2022-08-19T10:46:04;9.18;;;3.58;;
21168;SDS011;10742;51.816;8.662;2022-08-19T10:49:26;9.63;;;3.30;;
21168;SDS011;10742;51.816;8.662;2022-08-19T10:52:49;6.63;;;3.47;;
21168;SDS011;10742;51.816;8.662;2022-08-19T10:56:11;4.65;;;3.47;;
21168;SDS011;10742;51.816;8.662;2022-08-19T10:59:50;4.80;;;3.00;;
21168;SDS011;10742;51.816;8.662;2022-08-19T11:03:11;6.78;;;3.10;;
21168;SDS011;10742;51.816;8.662;2022-08-19T11:06:32;5.93;;;2.90;;
21168;SDS011;10742;51.816;8.662;2022-08-19T11:09:54;2.95;;;2.25;;
21168;SDS011;10742;51.816;8.662;2022-08-19T11:13:15;3.90;;;2.10;;
21168;SDS011;10742;51.816;8.662;2022-08-19T11:16:36;4.50;;;2.25;;
21168;SDS011;10742;51.816;8.662;2022-08-19T11:19:59;4.22;;;2.30;;
21168;SDS011;10742;51.816;8.662;2022-08-19T11:23:23;4.25;;;2.30;;
21168;SDS011;10742;51.816;8.662;2022-08-19T11:26:45;6.65;;;2.33;;
21168;SDS011;10742;51.816;8.662;2022-08-19T11:30:10;3.80;;;1.92;;
21168;SDS011;10742;51.816;8.662;2022-08-19T11:33:33;2.67;;;2.03;;
21168;SDS011;10742;51.816;8.662;2022-08-19T11:36:55;4.00;;;2.47;;
21168;SDS011;10742;51.816;8.662;2022-08-19T11:40:19;3.33;;;2.47;;
21168;SDS011;10742;51.816;8.662;2022-08-19T11:43:40;3.17;;;2.10;;
21168;SDS011;10742;51.816;8.662;2022-08-19T11:47:01;4.90;;;2.33;;
21168;SDS011;10742;51.816;8.662;2022-08-19T11:50:23;4.65;;;2.40;;
21168;SDS011;10742;51.816;8.662;2022-08-19T11:53:44;2.53;;;2.10;;
21168;SDS011;10742;51.816;8.662;2022-08-19T11:57:06;4.60;;;1.83;;
21168;SDS011;10742;51.816;8.662;2022-08-19T12:00:27;1.70;;;1.60;;
21168;SDS011;10742;51.816;8.662;2022-08-19T12:03:49;3.22;;;1.95;;
21168;SDS011;10742;51.816;8.662;2022-08-19T12:07:12;2.55;;;1.83;;
21168;SDS011;10742;51.816;8.662;2022-08-19T12:10:33;3.65;;;2.10;;
21168;SDS011;10742;51.816;8.662;2022-08-19T12:13:55;2.53;;;2.00;;
21168;SDS011;10742;51.816;8.662;2022-08-19T12:17:16;2.35;;;2.15;;
21168;SDS011;10742;51.816;8.662;2022-08-19T12:20:38;3.72;;;2.10;;
21168;SDS011;10742;51.816;8.662;2022-08-19T12:24:01;4.88;;;2.22;;
21168;SDS011;10742;51.816;8.662;2022-08-19T12:27:24;2.10;;;1.90;;
21168;SDS011;10742;51.816;8.662;2022-08-19T12:30:46;4.40;;;2.28;;
21168;SDS011;10742;51.816;8.662;2022-08-19T12:34:08;2.60;;;2.15;;
21168;SDS011;10742;51.816;8.662;2022-08-19T12:37:29;7.18;;;2.42;;
21168;SDS011;10742;51.816;8.662;2022-08-19T12:40:52;2.25;;;2.05;;
21168;SDS011;10742;51.816;8.662;2022-08-19T12:44:15;3.33;;;2.35;;
21168;SDS011;10742;51.816;8.662;2022-08-19T12:47:37;3.45;;;2.20;;
21168;SDS011;10742;51.816;8.662;2022-08-19T12:50:58;3.22;;;2.40;;
21168;SDS011;10742;51.816;8.662;2022-08-19T12:54:19;4.65;;;2.33;;
21168;SDS011;10742;51.816;8.662;2022-08-19T12:57:40;3.72;;;2.35;;
21168;SDS011;10742;51.816;8.662;2022-08-19T13:01:09;3.03;;;2.45;;
21168;SDS011;10742;51.816;8.662;2022-08-19T13:04:34;3.10;;;2.42;;
21168;SDS011;10742;51.816;8.662;2022-08-19T13:07:58;2.97;;;2.33;;
21168;SDS011;10742;51.816;8.662;2022-08-19T13:11:20;3.53;;;2.33;;
21168;SDS011;10742;51.816;8.662;2022-08-19T13:14:45;3.40;;;2.50;;
21168;SDS011;10742;51.816;8.662;2022-08-19T13:18:11;7.75;;;3.00;;
21168;SDS011;10742;51.816;8.662;2022-08-19T13:21:33;3.80;;;2.38;;
21168;SDS011;10742;51.816;8.662;2022-08-19T13:24:54;3.58;;;2.63;;
21168;SDS011;10742;51.816;8.662;2022-08-19T13:28:15;4.07;;;2.70;;
21168;SDS011;10742;51.816;8.662;2022-08-19T13:31:38;2.60;;;2.40;;
21168;SDS011;10742;51.816;8.662;2022-08-19T13:35:19;4.80;;;2.70;;
21168;SDS011;10742;51.816;8.662;2022-08-19T13:38:40;7.03;;;2.70;;
21168;SDS011;10742;51.816;8.662;2022-08-19T13:42:02;2.95;;;2.35;;
21168;SDS011;10742;51.816;8.662;2022-08-19T13:45:25;4.18;;;2.42;;
21168;SDS011;10742;51.816;8.662;2022-08-19T13:48:48;6.53;;;2.60;;
21168;SDS011;10742;51.816;8.662;2022-08-19T13:52:09;6.50;;;2.85;;
21168;SDS011;10742;51.816;8.662;2022-08-19T13:55:30;3.67;;;2.30;;
21168;SDS011;10742;51.816;8.662;2022-08-19T13:58:52;3.70;;;2.30;;
21168;SDS011;10742;51.816;8.662;2022-08-19T14:02:14;4.15;;;2.60;;
21168;SDS011;10742;51.816;8.662;2022-08-19T14:05:35;3.75;;;2.58;;
21168;SDS011;10742;51.816;8.662;2022-08-19T14:08:56;7.88;;;3.00;;
21168;SDS011;10742;51.816;8.662;2022-08-19T14:12:18;2.88;;;2.55;;
21168;SDS011;10742;51.816;8.662;2022-08-19T14:15:41;5.35;;;2.80;;
21168;SDS011;10742;51.816;8.662;2022-08-19T14:19:02;3.30;;;2.75;;
21168;SDS011;10742;51.816;8.662;2022-08-19T14:22:23;5.40;;;2.58;;
21168;SDS011;10742;51.816;8.662;2022-08-19T14:25:45;3.65;;;2.60;;
21168;SDS011;10742;51.816;8.662;2022-08-19T14:29:06;3.70;;;2.63;;
21168;SDS011;10742;51.816;8.662;2022-08-19T14:32:28;4.70;;;2.58;;
21168;SDS011;10742;51.816;8.662;2022-08-19T14:35:49;4.90;;;2.75;;
21168;SDS011;10742;51.816;8.662;2022-08-19T14:39:10;2.90;;;2.50;;
21168;SDS011;10742;51.816;8.662;2022-08-19T14:42:32;4.03;;;2.60;;
21168;SDS011;10742;51.816;8.662;2022-08-19T14:45:54;5.32;;;2.60;;
21168;SDS011;10742;51.816;8.662;2022-08-19T14:49:17;2.60;;;2.40;;
21168;SDS011;10742;51.816;8.662;2022-08-19T14:52:38;4.55;;;2.45;;
21168;SDS011;10742;51.816;8.662;2022-08-19T14:56:00;5.50;;;2.50;;
21168;SDS011;10742;51.816;8.662;2022-08-19T14:59:26;4.38;;;2.42;;
21168;SDS011;10742;51.816;8.662;2022-08-19T15:02:48;3.60;;;2.20;;
21168;SDS011;10742;51.816;8.662;2022-08-19T15:06:10;3.58;;;2.50;;
21168;SDS011;10742;51.816;8.662;2022-08-19T15:09:31;4.93;;;2.50;;
21168;SDS011;10742;51.816;8.662;2022-08-19T15:12:53;3.03;;;2.58;;
21168;SDS011;10742;51.816;8.662;2022-08-19T15:16:15;5.28;;;2.40;;
21168;SDS011;10742;51.816;8.662;2022-08-19T15:19:37;3.83;;;2.50;;
21168;SDS011;10742;51.816;8.662;2022-08-19T15:22:59;3.00;;;2.38;;
21168;SDS011;10742;51.816;8.662;2022-08-19T15:26:21;3.90;;;2.60;;
21168;SDS011;10742;51.816;8.662;2022-08-19T15:29:42;2.88;;;2.60;;
21168;SDS011;10742;51.816;8.662;2022-08-19T15:33:03;3.83;;;2.83;;
21168;SDS011;10742;51.816;8.662;2022-08-19T15:36:25;4.25;;;2.53;;
21168;SDS011;10742;51.816;8.662;2022-08-19T15:39:48;3.38;;;2.53;;
21168;SDS011;10742;51.816;8.662;2022-08-19T15:43:09;3.88;;;2.60;;
21168;SDS011;10742;51.816;8.662;2022-08-19T15:46:31;3.97;;;2.40;;
21168;SDS011;10742;51.816;8.662;2022-08-19T15:49:54;5.47;;;2.58;;
21168;SDS011;10742;51.816;8.662;2022-08-19T15:53:18;2.65;;;2.42;;
21168;SDS011;10742;51.816;8.662;2022-08-19T15:56:39;4.38;;;2.58;;
21168;SDS011;10742;51.816;8.662;2022-08-19T16:00:19;4.30;;;2.58;;
21168;SDS011;10742;51.816;8.662;2022-08-19T16:03:59;4.40;;;2.50;;
21168;SDS011;10742;51.816;8.662;2022-08-19T16:07:39;2.95;;;2.63;;
21168;SDS011;10742;51.816;8.662;2022-08-19T16:11:00;7.55;;;2.63;;
21168;SDS011;10742;51.816;8.662;2022-08-19T16:14:21;4.18;;;2.50;;
21168;SDS011;10742;51.816;8.662;2022-08-19T16:17:42;5.78;;;2.58;;
21168;SDS011;10742;51.816;8.662;2022-08-19T16:21:04;2.67;;;2.47;;
21168;SDS011;10742;51.816;8.662;2022-08-19T16:24:27;4.35;;;2.58;;
21168;SDS011;10742;51.816;8.662;2022-08-19T16:27:49;5.45;;;2.50;;
21168;SDS011;10742;51.816;8.662;2022-08-19T16:31:10;2.75;;;2.35;;
21168;SDS011;10742;51.816;8.662;2022-08-19T16:34:33;4.72;;;2.63;;
21168;SDS011;10742;51.816;8.662;2022-08-19T16:37:55;4.60;;;2.72;;
21168;SDS011;10742;51.816;8.662;2022-08-19T16:41:17;5.07;;;2.58;;
21168;SDS011;10742;51.816;8.662;2022-08-19T16:44:43;4.53;;;2.85;;
21168;SDS011;10742;51.816;8.662;2022-08-19T16:48:05;3.40;;;2.65;;
21168;SDS011;10742;51.816;8.662;2022-08-19T16:51:26;5.57;;;2.88;;
21168;SDS011;10742;51.816;8.662;2022-08-19T16:54:48;4.85;;;2.85;;
21168;SDS011;10742;51.816;8.662;2022-08-19T16:58:09;4.43;;;2.80;;
21168;SDS011;10742;51.816;8.662;2022-08-19T17:01:30;6.95;;;3.08;;
21168;SDS011;10742;51.816;8.662;2022-08-19T17:04:51;7.32;;;3.10;;
21168;SDS011;10742;51.816;8.662;2022-08-19T17:08:13;7.25;;;2.63;;
21168;SDS011;10742;51.816;8.662;2022-08-19T17:11:38;5.13;;;2.90;;
21168;SDS011;10742;51.816;8.662;2022-08-19T17:15:00;5.25;;;3.05;;
21168;SDS011;10742;51.816;8.662;2022-08-19T17:18:22;5.57;;;2.90;;
21168;SDS011;10742;51.816;8.662;2022-08-19T17:21:43;5.93;;;2.90;;
21168;SDS011;10742;51.816;8.662;2022-08-19T17:25:04;3.53;;;2.80;;
21168;SDS011;10742;51.816;8.662;2022-08-19T17:28:27;5.45;;;3.00;;
21168;SDS011;10742;51.816;8.662;2022-08-19T17:31:49;6.63;;;2.92;;
21168;SDS011;10742;51.816;8.662;2022-08-19T17:35:10;3.10;;;2.80;;
21168;SDS011;10742;51.816;8.662;2022-08-19T17:38:32;4.57;;;3.05;;
21168;SDS011;10742;51.816;8.662;2022-08-19T17:41:54;4.30;;;3.10;;
21168;SDS011;10742;51.816;8.662;2022-08-19T17:45:15;3.63;;;2.95;;
21168;SDS011;10742;51.816;8.662;2022-08-19T17:48:37;4.18;;;2.70;;
21168;SDS011;10742;51.816;8.662;2022-08-19T17:51:58;5.70;;;3.00;;
21168;SDS011;10742;51.816;8.662;2022-08-19T17:55:20;7.07;;;2.90;;
21168;SDS011;10742;51.816;8.662;2022-08-19T17:58:42;4.45;;;3.28;;
21168;SDS011;10742;51.816;8.662;2022-08-19T18:02:03;8.38;;;3.25;;
21168;SDS011;10742;51.816;8.662;2022-08-19T18:05:28;6.10;;;3.20;;
21168;SDS011;10742;51.816;8.662;2022-08-19T18:08:52;4.57;;;3.08;;
21168;SDS011;10742;51.816;8.662;2022-08-19T18:12:13;8.30;;;3.70;;
21168;SDS011;10742;51.816;8.662;2022-08-19T18:15:35;5.93;;;3.78;;
21168;SDS011;10742;51.816;8.662;2022-08-19T18:18:57;8.38;;;4.18;;
21168;SDS011;10742;51.816;8.662;2022-08-19T18:22:23;7.45;;;4.20;;
21168;SDS011;10742;51.816;8.662;2022-08-19T18:25:56;7.47;;;3.92;;
21168;SDS011;10742;51.816;8.662;2022-08-19T18:29:17;8.80;;;4.13;;
21168;SDS011;10742;51.816;8.662;2022-08-19T18:32:38;9.00;;;4.07;;
21168;SDS011;10742;51.816;8.662;2022-08-19T18:36:01;5.22;;;3.50;;
21168;SDS011;10742;51.816;8.662;2022-08-19T18:39:24;6.00;;;3.90;;
21168;SDS011;10742;51.816;8.662;2022-08-19T18:43:04;5.15;;;3.55;;
21168;SDS011;10742;51.816;8.662;2022-08-19T18:46:44;7.57;;;4.25;;
21168;SDS011;10742;51.816;8.662;2022-08-19T18:50:24;7.35;;;4.45;;
21168;SDS011;10742;51.816;8.662;2022-08-19T18:53:45;14.50;;;4.50;;
21168;SDS011;10742;51.816;8.662;2022-08-19T18:57:09;7.70;;;4.30;;
21168;SDS011;10742;51.816;8.662;2022-08-19T19:00:30;9.68;;;4.30;;
21168;SDS011;10742;51.816;8.662;2022-08-19T19:03:52;8.60;;;4.68;;
21168;SDS011;10742;51.816;8.662;2022-08-19T19:07:14;7.47;;;4.32;;
21168;SDS011;10742;51.816;8.662;2022-08-19T19:10:38;6.93;;;4.25;;
21168;SDS011;10742;51.816;8.662;2022-08-19T19:14:01;6.97;;;4.30;;
21168;SDS011;10742;51.816;8.662;2022-08-19T19:17:23;5.72;;;4.20;;
21168;SDS011;10742;51.816;8.662;2022-08-19T19:20:47;7.78;;;4.25;;
21168;SDS011;10742;51.816;8.662;2022-08-19T19:24:09;6.70;;;4.20;;
21168;SDS011;10742;51.816;8.662;2022-08-19T19:27:31;10.77;;;4.50;;
21168;SDS011;10742;51.816;8.662;2022-08-19T19:30:53;6.68;;;4.32;;
21168;SDS011;10742;51.816;8.662;2022-08-19T19:34:19;8.07;;;4.47;;
21168;SDS011;10742;51.816;8.662;2022-08-19T19:37:41;6.57;;;4.28;;
21168;SDS011;10742;51.816;8.662;2022-08-19T19:41:04;8.07;;;5.07;;
21168;SDS011;10742;51.816;8.662;2022-08-19T19:44:25;8.05;;;4.43;;
21168;SDS011;10742;51.816;8.662;2022-08-19T19:47:46;7.10;;;4.63;;
21168;SDS011;10742;51.816;8.662;2022-08-19T19:51:09;11.10;;;5.05;;
21168;SDS011;10742;51.816;8.662;2022-08-19T19:54:30;7.10;;;4.53;;
21168;SDS011;10742;51.816;8.662;2022-08-19T19:57:52;9.90;;;4.90;;
21168;SDS011;10742;51.816;8.662;2022-08-19T20:01:14;8.38;;;4.55;;
21168;SDS011;10742;51.816;8.662;2022-08-19T20:04:35;8.70;;;5.40;;
21168;SDS011;10742;51.816;8.662;2022-08-19T20:07:56;8.90;;;4.93;;
21168;SDS011;10742;51.816;8.662;2022-08-19T20:11:41;8.48;;;4.65;;